createdAt,value
2022-10-18T00:00:44.604Z,1010.7
2022-10-18T00:01:46.786Z,1010.7
2022-10-18T00:02:48.715Z,1010.7
2022-10-18T00:03:50.672Z,1010.7
2022-10-18T00:04:52.652Z,1010.7
2022-10-18T00:05:54.676Z,1010.6
2022-10-18T00:06:56.708Z,1010.6
2022-10-18T00:07:58.652Z,1010.6
2022-10-18T00:09:00.632Z,1010.6
2022-10-18T00:10:02.751Z,1010.6
2022-10-18T00:11:04.672Z,1010.6
2022-10-18T00:12:06.717Z,1010.6
2022-10-18T00:13:08.695Z,1010.6
2022-10-18T00:14:10.655Z,1010.6
2022-10-18T00:15:12.654Z,1010.6
2022-10-18T00:16:14.672Z,1010.6
2022-10-18T00:17:15.632Z,1010.6
2022-10-18T00:18:16.665Z,1010.7
2022-10-18T00:19:17.632Z,1010.7
2022-10-18T00:20:18.640Z,1010.6
2022-10-18T00:21:19.632Z,1010.7
2022-10-18T00:22:20.732Z,1010.7
2022-10-18T00:23:22.711Z,1010.7
2022-10-18T00:24:24.693Z,1010.6
2022-10-18T00:25:26.713Z,1010.6
2022-10-18T00:26:28.652Z,1010.6
2022-10-18T00:27:30.722Z,1010.6
2022-10-18T00:28:32.610Z,1010.6
2022-10-18T00:29:34.692Z,1010.6
2022-10-18T00:30:36.751Z,1010.6
2022-10-18T00:31:39.151Z,1010.6
2022-10-18T00:32:40.712Z,1010.6
2022-10-18T00:33:42.772Z,1010.6
2022-10-18T00:34:44.693Z,1010.7
2022-10-18T00:35:46.692Z,1010.6
2022-10-18T00:36:48.632Z,1010.6
2022-10-18T00:37:50.693Z,1010.7
2022-10-18T00:38:52.711Z,1010.6
2022-10-18T00:39:54.694Z,1010.7
2022-10-18T00:40:56.713Z,1010.7
2022-10-18T00:41:58.616Z,1010.6
2022-10-18T00:42:59.698Z,1010.6
2022-10-18T00:44:01.752Z,1010.6
2022-10-18T00:45:03.732Z,1010.6
2022-10-18T00:46:05.732Z,1010.6
2022-10-18T00:47:08.052Z,1010.6
2022-10-18T00:48:09.671Z,1010.6
2022-10-18T00:49:11.618Z,1010.6
2022-10-18T00:50:12.623Z,1010.6
2022-10-18T00:51:13.652Z,1010.6
2022-10-18T00:52:15.712Z,1010.6
2022-10-18T00:53:16.631Z,1010.5
2022-10-18T00:54:17.691Z,1010.6
2022-10-18T00:55:18.672Z,1010.5
2022-10-18T00:56:19.651Z,1010.6
2022-10-18T00:57:20.774Z,1010.5
2022-10-18T00:58:22.717Z,1010.5
2022-10-18T00:59:24.701Z,1010.6
2022-10-18T01:00:26.737Z,1010.5
2022-10-18T01:01:28.781Z,1010.5
2022-10-18T01:02:30.999Z,1010.5
2022-10-18T01:03:32.691Z,1010.5
2022-10-18T01:04:34.590Z,1010.5
2022-10-18T01:05:35.711Z,1010.5
2022-10-18T01:06:37.712Z,1010.5
2022-10-18T01:07:39.633Z,1010.4
2022-10-18T01:08:41.811Z,1010.4
2022-10-18T01:09:43.699Z,1010.4
2022-10-18T01:10:45.666Z,1010.5
2022-10-18T01:11:47.651Z,1010.5
2022-10-18T01:12:48.712Z,1010.4
2022-10-18T01:13:50.776Z,1010.4
2022-10-18T01:14:52.672Z,1010.4
2022-10-18T01:16:56.671Z,1010.4
2022-10-18T01:17:58.654Z,1010.3
2022-10-18T01:18:59.675Z,1010.4
2022-10-18T01:20:00.691Z,1010.4
2022-10-18T01:21:01.732Z,1010.4
2022-10-18T01:22:02.692Z,1010.4
2022-10-18T01:23:03.574Z,1010.4
2022-10-18T01:24:04.684Z,1010.4
2022-10-18T01:25:05.673Z,1010.4
2022-10-18T01:26:06.660Z,1010.4
2022-10-18T01:27:07.692Z,1010.3
2022-10-18T01:28:08.712Z,1010.3
2022-10-18T01:29:10.838Z,1010.4
2022-10-18T01:30:12.737Z,1010.4
2022-10-18T01:31:14.712Z,1009.7
2022-10-18T01:32:16.852Z,1010.2
2022-10-18T01:33:18.733Z,1010.3
2022-10-18T01:34:20.772Z,1010.4
2022-10-18T01:35:22.752Z,1010.5
2022-10-18T01:36:24.686Z,1010.4
2022-10-18T01:37:25.804Z,1010.4
2022-10-18T01:38:27.733Z,1010.3
2022-10-18T01:39:29.731Z,1010.3
2022-10-18T01:40:31.731Z,1010.3
2022-10-18T01:41:33.711Z,1010.3
2022-10-18T01:42:35.732Z,1010.3
2022-10-18T01:43:37.711Z,1010.3
2022-10-18T01:44:39.756Z,1010.3
2022-10-18T01:45:41.690Z,1010.3
2022-10-18T01:46:43.751Z,1010.4
2022-10-18T01:47:45.775Z,1010.4
2022-10-18T01:48:47.832Z,1010.4
2022-10-18T01:49:49.811Z,1010.4
2022-10-18T01:50:56.802Z,1009.6
2022-10-18T01:51:58.820Z,1010.1
2022-10-18T01:53:00.713Z,1010.3
2022-10-18T01:54:02.693Z,1010.3
2022-10-18T01:55:03.725Z,1010.3
2022-10-18T01:56:04.697Z,1010.3
2022-10-18T01:57:05.712Z,1010.3
2022-10-18T01:58:06.715Z,1010.3
2022-10-18T01:59:07.713Z,1010.3
2022-10-18T02:00:09.822Z,1010.3
2022-10-18T02:04:15.031Z,1010.2
2022-10-18T02:05:16.792Z,1010.3
2022-10-18T02:06:18.744Z,1010.2
2022-10-18T02:07:20.659Z,1010.2
2022-10-18T02:08:23.682Z,1010.2
2022-10-18T02:09:24.752Z,1010.2
2022-10-18T02:10:26.753Z,1010.2
2022-10-18T02:11:28.714Z,1010.2
2022-10-18T02:12:30.028Z,1009.9
2022-10-18T02:13:30.819Z,1010.1
2022-10-18T02:14:32.691Z,1010.2
2022-10-18T02:15:34.876Z,1009.8
2022-10-18T02:16:36.793Z,1010.1
2022-10-18T02:17:38.772Z,1010.2
2022-10-18T02:18:40.811Z,1010.2
2022-10-18T02:19:42.814Z,1010.2
2022-10-18T02:20:44.752Z,1010.3
2022-10-18T02:21:46.731Z,1010.3
2022-10-18T02:22:48.761Z,1010.3
2022-10-18T02:23:50.790Z,1010.3
2022-10-18T02:24:52.791Z,1010.2
2022-10-18T02:25:54.751Z,1010.2
2022-10-18T02:26:56.791Z,1010.2
2022-10-18T02:27:58.683Z,1010.2
2022-10-18T02:29:00.692Z,1010.2
2022-10-18T02:30:02.832Z,1010.2
2022-10-18T02:31:04.758Z,1010.2
2022-10-18T02:32:06.691Z,1010.2
2022-10-18T02:33:08.712Z,1010.3
2022-10-18T02:34:10.671Z,1010.2
2022-10-18T02:35:11.753Z,1010.2
2022-10-18T02:36:12.671Z,1010.2
2022-10-18T02:37:13.757Z,1010.2
2022-10-18T02:38:14.653Z,1010.2
2022-10-18T02:39:15.692Z,1010.2
2022-10-18T02:40:17.752Z,1010.2
2022-10-18T02:41:19.754Z,1010.2
2022-10-18T02:42:21.758Z,1010.2
2022-10-18T02:43:23.712Z,1010.1
2022-10-18T02:44:24.703Z,1010.2
2022-10-18T02:45:25.700Z,1010.2
2022-10-18T02:47:27.714Z,1010.2
2022-10-18T02:48:28.772Z,1010.2
2022-10-18T02:49:30.791Z,1010.2
2022-10-18T02:50:32.751Z,1010.2
2022-10-18T02:51:34.791Z,1010.2
2022-10-18T02:52:36.986Z,1010.3
2022-10-18T02:53:38.772Z,1010.3
2022-10-18T02:54:40.771Z,1010.4
2022-10-18T02:55:42.752Z,1010.3
2022-10-18T02:56:44.731Z,1010.3
2022-10-18T02:57:46.751Z,1010.3
2022-10-18T02:58:48.772Z,1010.3
2022-10-18T02:59:50.751Z,1010.3
2022-10-18T03:00:52.735Z,1010.4
2022-10-18T03:01:54.819Z,1010.4
2022-10-18T03:02:55.710Z,1010.3
2022-10-18T03:03:56.712Z,1010.3
2022-10-18T03:04:57.737Z,1010.4
2022-10-18T03:05:58.732Z,1010.4
2022-10-18T03:06:59.692Z,1010.4
2022-10-18T03:08:00.683Z,1010.4
2022-10-18T03:09:02.751Z,1010.3
2022-10-18T03:10:04.746Z,1010.3
2022-10-18T03:11:06.752Z,1010.4
2022-10-18T03:12:08.772Z,1010.4
2022-10-18T03:13:10.731Z,1010.4
2022-10-18T03:14:12.853Z,1010.4
2022-10-18T03:15:14.756Z,1010.5
2022-10-18T03:16:16.773Z,1010.5
2022-10-18T03:17:18.817Z,1010.5
2022-10-18T03:18:20.712Z,1010.5
2022-10-18T03:19:21.779Z,1010.5
2022-10-18T03:20:22.731Z,1010.5
2022-10-18T03:21:24.708Z,1010.5
2022-10-18T03:22:26.792Z,1010.5
2022-10-18T03:23:28.773Z,1010.5
2022-10-18T03:24:30.771Z,1010.5
2022-10-18T03:25:32.771Z,1010.5
2022-10-18T03:26:33.713Z,1010.5
2022-10-18T03:27:34.947Z,1010.5
2022-10-18T03:28:36.809Z,1010.5
2022-10-18T03:29:38.757Z,1010.6
2022-10-18T03:30:40.851Z,1010.6
2022-10-18T03:31:42.791Z,1010.5
2022-10-18T03:32:44.777Z,1010.5
2022-10-18T03:33:46.751Z,1010.6
2022-10-18T03:34:48.733Z,1010.6
2022-10-18T03:35:49.792Z,1010.5
2022-10-18T03:36:51.711Z,1010.6
2022-10-18T03:37:52.752Z,1010.6
2022-10-18T03:38:54.771Z,1010.6
2022-10-18T03:39:56.732Z,1010.6
2022-10-18T03:40:58.872Z,1010.6
2022-10-18T03:42:00.831Z,1010.6
2022-10-18T03:43:02.781Z,1010.6
2022-10-18T03:44:04.699Z,1010.6
2022-10-18T03:45:06.791Z,1010.6
2022-10-18T03:46:08.832Z,1010.6
2022-10-18T03:47:10.791Z,1010.6
2022-10-18T03:48:12.776Z,1010.7
2022-10-18T03:49:14.792Z,1010.6
2022-10-18T03:50:16.811Z,1010.6
2022-10-18T03:51:18.831Z,1010.6
2022-10-18T03:52:20.872Z,1010.7
2022-10-18T03:53:22.771Z,1010.7
2022-10-18T03:54:24.772Z,1010
2022-10-18T03:55:26.811Z,1010.5
2022-10-18T03:56:28.874Z,1010.7
2022-10-18T03:57:30.872Z,1010.7
2022-10-18T03:59:34.839Z,1010.7
2022-10-18T04:00:36.951Z,1010.8
2022-10-18T04:01:38.713Z,1010.7
2022-10-18T04:02:40.772Z,1010.7
2022-10-18T04:03:42.915Z,1010.7
2022-10-18T04:04:44.859Z,1010.7
2022-10-18T04:05:46.860Z,1010.7
2022-10-18T04:06:48.772Z,1010.7
2022-10-18T04:07:50.873Z,1010.7
2022-10-18T04:08:52.791Z,1010.8
2022-10-18T04:09:53.871Z,1010.8
2022-10-18T04:10:55.832Z,1010.7
2022-10-18T04:11:57.773Z,1010.8
2022-10-18T04:12:59.750Z,1010.8
2022-10-18T04:14:01.831Z,1010.8
2022-10-18T04:15:02.799Z,1010.8
2022-10-18T04:16:03.771Z,1010.8
2022-10-18T04:17:04.754Z,1010.8
2022-10-18T04:18:05.837Z,1010.7
2022-10-18T04:19:07.786Z,1010.7
2022-10-18T04:20:09.874Z,1010.7
2022-10-18T04:21:11.774Z,1010.7
2022-10-18T04:22:13.792Z,1010.8
2022-10-18T04:23:15.811Z,1010.8
2022-10-18T04:24:17.809Z,1010.8
2022-10-18T04:25:19.811Z,1010.8
2022-10-18T04:26:21.831Z,1010.8
2022-10-18T04:27:23.852Z,1010.8
2022-10-18T04:28:25.791Z,1010.8
2022-10-18T04:29:27.772Z,1010.8
2022-10-18T04:30:28.753Z,1010.8
2022-10-18T04:31:29.852Z,1010.8
2022-10-18T04:32:31.772Z,1010.8
2022-10-18T04:33:33.812Z,1010.8
2022-10-18T04:34:35.907Z,1010.7
2022-10-18T04:35:37.831Z,1010.8
2022-10-18T04:36:40.307Z,1010.7
2022-10-18T04:37:41.774Z,1010.8
2022-10-18T04:38:43.782Z,1010.7
2022-10-18T04:39:47.366Z,1010.8
2022-10-18T04:40:47.795Z,1010.8
2022-10-18T04:41:49.851Z,1010.8
2022-10-18T04:42:51.779Z,1010.8
2022-10-18T04:43:53.772Z,1010.8
2022-10-18T04:44:55.852Z,1010.8
2022-10-18T04:45:57.792Z,1010.8
2022-10-18T04:46:58.812Z,1010.8
2022-10-18T04:47:59.912Z,1010.8
2022-10-18T04:49:01.791Z,1010.8
2022-10-18T04:50:02.907Z,1010.8
2022-10-18T04:51:03.851Z,1010.8
2022-10-18T04:52:04.853Z,1010.7
2022-10-18T04:53:05.830Z,1010.7
2022-10-18T04:54:07.816Z,1010.8
2022-10-18T04:55:09.756Z,1010.8
2022-10-18T04:56:11.732Z,1010.8
2022-10-18T04:57:12.813Z,1010.8
2022-10-18T04:58:13.791Z,1010.8
2022-10-18T04:59:14.812Z,1010.8
2022-10-18T05:00:15.751Z,1010.7
2022-10-18T05:01:16.789Z,1010.7
2022-10-18T05:02:18.775Z,1010.7
2022-10-18T05:03:19.773Z,1010.7
2022-10-18T05:04:20.813Z,1010.7
2022-10-18T05:05:22.182Z,1010.7
2022-10-18T05:06:22.754Z,1010.7
2022-10-18T05:07:23.772Z,1010.7
2022-10-18T05:08:24.793Z,1010.7
2022-10-18T05:09:25.811Z,1010.7
2022-10-18T05:10:26.787Z,1010.7
2022-10-18T05:11:27.794Z,1010.6
2022-10-18T05:12:28.737Z,1010.7
2022-10-18T05:13:29.833Z,1010.7
2022-10-18T05:14:30.753Z,1010.6
2022-10-18T05:15:31.832Z,1010.7
2022-10-18T05:16:32.772Z,1010.7
2022-10-18T05:17:33.761Z,1010.7
2022-10-18T05:18:34.812Z,1010.7
2022-10-18T05:19:36.851Z,1010.7
2022-10-18T05:20:38.936Z,1010.7
2022-10-18T05:21:41.153Z,1010.7
2022-10-18T05:22:42.854Z,1010.7
2022-10-18T05:23:44.872Z,1010.7
2022-10-18T05:24:46.880Z,1010.7
2022-10-18T05:25:48.831Z,1010.8
2022-10-18T05:26:50.813Z,1010.7
2022-10-18T05:27:52.832Z,1010.7
2022-10-18T05:28:53.812Z,1010.7
2022-10-18T05:29:56.516Z,1010.2
2022-10-18T05:30:57.795Z,1010.5
2022-10-18T05:31:59.834Z,1010.6
2022-10-18T05:33:01.953Z,1010.6
2022-10-18T05:34:03.932Z,1010.6
2022-10-18T05:35:05.855Z,1010.6
2022-10-18T05:36:07.835Z,1010.6
2022-10-18T05:37:09.831Z,1010.5
2022-10-18T05:38:11.833Z,1010.5
2022-10-18T05:39:13.895Z,1010.6
2022-10-18T05:40:15.894Z,1010.6
2022-10-18T05:41:17.835Z,1010.6
2022-10-18T05:42:19.798Z,1010.6
2022-10-18T05:43:21.852Z,1010.6
2022-10-18T05:44:23.812Z,1010.6
2022-10-18T05:45:25.892Z,1010.5
2022-10-18T05:46:27.832Z,1010.5
2022-10-18T05:47:29.878Z,1010.5
2022-10-18T05:48:31.953Z,1010.5
2022-10-18T05:49:33.871Z,1010.6
2022-10-18T05:50:38.026Z,1010.6
2022-10-18T05:51:36.837Z,1010.6
2022-10-18T05:52:37.941Z,1010.5
2022-10-18T05:53:39.818Z,1010.5
2022-10-18T05:54:41.922Z,1010.5
2022-10-18T05:55:43.811Z,1010.6
2022-10-18T05:56:45.831Z,1010.6
2022-10-18T05:57:47.913Z,1010.6
2022-10-18T05:58:49.916Z,1010.6
2022-10-18T05:59:51.881Z,1010.5
2022-10-18T06:00:53.912Z,1010.5
2022-10-18T06:01:55.854Z,1010.6
2022-10-18T06:02:59.437Z,1010.6
2022-10-18T06:03:59.901Z,1010.6
2022-10-18T06:05:01.935Z,1010.6
2022-10-18T06:06:03.919Z,1010.6
2022-10-18T06:07:05.886Z,1010.6
2022-10-18T06:08:09.450Z,1010.6
2022-10-18T06:09:09.851Z,1010.6
2022-10-18T06:10:11.812Z,1010.6
2022-10-18T06:11:13.813Z,1010.6
2022-10-18T06:12:14.871Z,1010.6
2022-10-18T06:13:15.853Z,1010.6
2022-10-18T06:14:16.843Z,1010.6
2022-10-18T06:15:17.859Z,1010.6
2022-10-18T06:16:19.995Z,1010.7
2022-10-18T06:17:21.912Z,1010.7
2022-10-18T06:18:23.837Z,1010.7
2022-10-18T06:19:25.901Z,1010.7
2022-10-18T06:20:27.911Z,1010.7
2022-10-18T06:21:29.873Z,1010.7
2022-10-18T06:22:30.837Z,1010.7
2022-10-18T06:23:31.834Z,1010.7
2022-10-18T06:24:32.900Z,1010.7
2022-10-18T06:25:33.885Z,1010.7
2022-10-18T06:26:34.899Z,1010.8
2022-10-18T06:27:35.817Z,1010.8
2022-10-18T06:28:36.988Z,1010.7
2022-10-18T06:29:37.872Z,1010.8
2022-10-18T06:30:39.893Z,1010.8
2022-10-18T06:31:41.911Z,1010.8
2022-10-18T06:32:44.191Z,1010.7
2022-10-18T06:33:45.914Z,1010.7
2022-10-18T06:34:47.852Z,1010.7
2022-10-18T06:35:49.893Z,1010.7
2022-10-18T06:36:54.925Z,1010.7
2022-10-18T06:37:52.978Z,1010.7
2022-10-18T06:38:54.920Z,1010.6
2022-10-18T06:39:56.853Z,1010.7
2022-10-18T06:40:58.858Z,1010.7
2022-10-18T06:42:00.891Z,1010.7
2022-10-18T06:43:16.464Z,1010.6
2022-10-18T06:44:04.821Z,1010.6
2022-10-18T06:45:05.902Z,1010.7
2022-10-18T06:46:07.905Z,1010.7
2022-10-18T06:47:09.940Z,1010.7
2022-10-18T06:48:11.931Z,1010.7
2022-10-18T06:49:14.133Z,1010.7
2022-10-18T06:50:15.939Z,1010.7
2022-10-18T06:51:17.903Z,1010.7
2022-10-18T06:52:19.839Z,1010.7
2022-10-18T06:53:20.962Z,1010.7
2022-10-18T06:54:22.980Z,1010.7
2022-10-18T06:55:24.919Z,1010.7
2022-10-18T06:56:26.919Z,1010.7
2022-10-18T06:57:28.844Z,1010.7
2022-10-18T06:58:31.019Z,1010.7
2022-10-18T06:59:32.901Z,1010.7
2022-10-18T07:00:34.939Z,1010.7
2022-10-18T07:01:36.905Z,1010.8
2022-10-18T07:02:38.850Z,1010.7
2022-10-18T07:03:41.249Z,1010.8
2022-10-18T07:04:42.899Z,1010.8
2022-10-18T07:05:44.889Z,1010.8
2022-10-18T07:06:46.867Z,1010.8
2022-10-18T07:07:50.719Z,1010.8
2022-10-18T07:08:51.382Z,1010.8
2022-10-18T07:09:52.939Z,1010.8
2022-10-18T07:10:54.940Z,1010.8
2022-10-18T07:11:56.898Z,1010.8
2022-10-18T07:13:13.469Z,1010.8
2022-10-18T07:14:00.098Z,1010.9
2022-10-18T07:15:05.605Z,1010.8
2022-10-18T07:16:03.859Z,1010.9
2022-10-18T07:17:05.882Z,1010.9
2022-10-18T07:18:07.874Z,1010.9
2022-10-18T07:19:09.980Z,1010.9
2022-10-18T07:20:11.978Z,1011
2022-10-18T07:21:13.878Z,1010.9
2022-10-18T07:22:15.999Z,1010.9
2022-10-18T07:23:17.979Z,1010.9
2022-10-18T07:24:20.030Z,1011
2022-10-18T07:25:23.171Z,1010.4
2022-10-18T07:26:23.900Z,1010.8
2022-10-18T07:27:25.898Z,1011
2022-10-18T07:28:27.927Z,1011
2022-10-18T07:29:28.940Z,1011
2022-10-18T07:30:29.898Z,1011
2022-10-18T07:31:30.959Z,1011
2022-10-18T07:32:32.959Z,1011.1
2022-10-18T07:33:34.911Z,1011
2022-10-18T07:34:37.020Z,1011
2022-10-18T07:35:38.939Z,1011
2022-10-18T07:36:41.407Z,1011
2022-10-18T07:37:42.919Z,1011
2022-10-18T07:38:44.932Z,1011
2022-10-18T07:39:46.983Z,1011
2022-10-18T07:40:48.927Z,1011
2022-10-18T07:41:50.940Z,1011
2022-10-18T07:42:52.879Z,1011
2022-10-18T07:43:53.864Z,1011
2022-10-18T07:44:54.914Z,1011
2022-10-18T07:45:56.980Z,1011
2022-10-18T07:46:58.938Z,1011
2022-10-18T07:48:00.998Z,1011
2022-10-18T07:49:02.958Z,1010.4
2022-10-18T07:50:05.121Z,1010.8
2022-10-18T07:51:06.919Z,1011
2022-10-18T07:52:09.004Z,1011
2022-10-18T07:53:10.980Z,1011
2022-10-18T07:54:12.970Z,1010.9
2022-10-18T07:55:14.984Z,1010.9
2022-10-18T07:56:17.034Z,1010.8
2022-10-18T07:57:18.913Z,1010.9
2022-10-18T07:58:21.080Z,1010.8
2022-10-18T07:59:23.059Z,1010.8
2022-10-18T08:00:24.962Z,1010.8
2022-10-18T08:01:27.149Z,1010.8
2022-10-18T08:02:28.899Z,1010.8
2022-10-18T08:03:30.920Z,1010.8
2022-10-18T08:04:32.860Z,1010.8
2022-10-18T08:05:33.953Z,1010.8
2022-10-18T08:06:35.979Z,1010.8
2022-10-18T08:07:37.960Z,1010.8
2022-10-18T08:08:38.918Z,1010.8
2022-10-18T08:09:40.038Z,1010.8
2022-10-18T08:10:42.513Z,1010.7
2022-10-18T08:11:43.959Z,1010.8
2022-10-18T08:12:45.998Z,1010.8
2022-10-18T08:13:48.026Z,1010.7
2022-10-18T08:14:50.019Z,1010.7
2022-10-18T08:15:51.979Z,1010.7
2022-10-18T08:16:53.979Z,1010.7
2022-10-18T08:17:55.979Z,1010.7
2022-10-18T08:18:57.955Z,1010.6
2022-10-18T08:20:05.028Z,1010.6
2022-10-18T08:21:02.066Z,1010.6
2022-10-18T08:22:03.987Z,1010.6
2022-10-18T08:23:06.023Z,1010.6
2022-10-18T08:24:08.071Z,1010.6
2022-10-18T08:25:10.046Z,1010.5
2022-10-18T08:26:12.005Z,1010.6
2022-10-18T08:27:13.947Z,1010.6
2022-10-18T08:28:15.938Z,1010.5
2022-10-18T08:29:23.153Z,1010.5
2022-10-18T08:30:20.059Z,1010.5
2022-10-18T08:31:22.007Z,1010.5
2022-10-18T08:32:23.866Z,1010.5
2022-10-18T08:33:25.978Z,1010.5
2022-10-18T08:34:27.993Z,1010.5
2022-10-18T08:35:29.939Z,1010.4
2022-10-18T08:36:31.015Z,1010.4
2022-10-18T08:37:33.152Z,1010.4
2022-10-18T08:38:33.961Z,1010.4
2022-10-18T08:39:34.981Z,1010.4
2022-10-18T08:40:37.086Z,1010.4
2022-10-18T08:41:38.945Z,1010.4
2022-10-18T08:42:40.967Z,1010.1
2022-10-18T08:43:43.048Z,1010.3
2022-10-18T08:44:44.939Z,1010.3
2022-10-18T08:45:46.978Z,1010.4
2022-10-18T08:46:48.917Z,1010.3
2022-10-18T08:47:49.880Z,1010.3
2022-10-18T08:48:50.899Z,1010.3
2022-10-18T08:49:51.978Z,1010.3
2022-10-18T08:50:54.098Z,1010.3
2022-10-18T08:51:55.959Z,1010.3
2022-10-18T08:52:57.999Z,1010.3
2022-10-18T08:53:59.976Z,1010.3
2022-10-18T08:55:02.059Z,1010.2
2022-10-18T08:56:04.059Z,1010.2
2022-10-18T08:57:06.063Z,1010.2
2022-10-18T08:58:08.062Z,1010.2
2022-10-18T08:59:10.012Z,1010.2
2022-10-18T09:00:11.998Z,1010.2
2022-10-18T09:01:14.005Z,1010.2
2022-10-18T09:02:15.985Z,1010.2
2022-10-18T09:03:18.098Z,1010.2
2022-10-18T09:04:19.946Z,1010.3
2022-10-18T09:05:21.958Z,1010.3
2022-10-18T09:06:24.084Z,1010.2
2022-10-18T09:07:25.980Z,1010.3
2022-10-18T09:08:27.983Z,1010.2
2022-10-18T09:09:29.983Z,1010.2
2022-10-18T09:10:31.959Z,1010.3
2022-10-18T09:11:33.005Z,1010.2
2022-10-18T09:12:34.283Z,1010.2
2022-10-18T09:13:34.958Z,1010.2
2022-10-18T09:14:36.942Z,1010.1
2022-10-18T09:15:39.100Z,1010.1
2022-10-18T09:16:44.126Z,1010.1
2022-10-18T09:17:46.079Z,1010.1
2022-10-18T09:18:48.019Z,1010
2022-10-18T09:19:50.054Z,1010
2022-10-18T09:20:52.080Z,1010
2022-10-18T09:21:54.082Z,1010
2022-10-18T09:22:56.038Z,1010
2022-10-18T09:23:58.020Z,1009.9
2022-10-18T09:25:00.069Z,1009.9
2022-10-18T09:26:02.019Z,1009.9
2022-10-18T09:27:04.022Z,1009.9
2022-10-18T09:28:06.106Z,1009.8
2022-10-18T09:29:08.091Z,1009.8
2022-10-18T09:30:10.078Z,1009.8
2022-10-18T09:31:11.999Z,1009.8
2022-10-18T09:32:14.079Z,1009.8
2022-10-18T09:33:15.960Z,1009.8
2022-10-18T09:34:16.951Z,1009.8
2022-10-18T09:35:18.008Z,1009.7
2022-10-18T09:36:20.066Z,1009.7
2022-10-18T09:37:22.020Z,1009.7
2022-10-18T09:39:26.080Z,1009.3
2022-10-18T09:40:28.078Z,1009.6
2022-10-18T09:41:30.024Z,1009.7
2022-10-18T09:42:32.426Z,1009.8
2022-10-18T09:43:34.092Z,1009.7
2022-10-18T09:44:35.980Z,1009.7
2022-10-18T09:45:38.080Z,1009.7
2022-10-18T09:46:40.018Z,1009.8
2022-10-18T09:47:42.000Z,1009.7
2022-10-18T09:48:44.040Z,1009.7
2022-10-18T09:49:46.018Z,1009.6
2022-10-18T09:50:48.114Z,1009.6
2022-10-18T09:51:49.967Z,1009.6
2022-10-18T09:52:51.929Z,1009.6
2022-10-18T09:53:52.945Z,1009.6
2022-10-18T09:54:55.021Z,1009.6
2022-10-18T09:55:57.118Z,1009.6
2022-10-18T09:56:59.059Z,1009.6
2022-10-18T09:58:01.078Z,1009.5
2022-10-18T09:59:03.090Z,1009.5
2022-10-18T10:00:05.118Z,1009.5
2022-10-18T10:01:07.087Z,1009.6
2022-10-18T10:02:09.180Z,1009.6
2022-10-18T10:03:11.081Z,1009.6
2022-10-18T10:04:13.040Z,1009.6
2022-10-18T10:05:14.984Z,1009.5
2022-10-18T10:06:16.979Z,1009.5
2022-10-18T10:07:19.039Z,1009.4
2022-10-18T10:08:21.000Z,1009.4
2022-10-18T10:09:23.019Z,1009.4
2022-10-18T10:10:24.989Z,1009.4
2022-10-18T10:11:27.080Z,1009.4
2022-10-18T10:12:29.102Z,1009.3
2022-10-18T10:13:31.019Z,1009.3
2022-10-18T10:14:33.104Z,1009.3
2022-10-18T10:15:36.943Z,1009.3
2022-10-18T10:16:36.990Z,1009.3
2022-10-18T10:17:39.158Z,1009.3
2022-10-18T10:18:40.999Z,1009.3
2022-10-18T10:19:42.999Z,1009.2
2022-10-18T10:20:43.952Z,1009.2
2022-10-18T10:21:45.045Z,1009.2
2022-10-18T10:22:47.147Z,1009.1
2022-10-18T10:23:49.039Z,1009.1
2022-10-18T10:24:51.019Z,1009.1
2022-10-18T10:25:53.042Z,1009.1
2022-10-18T10:26:54.966Z,1009.1
2022-10-18T10:27:57.059Z,1009
2022-10-18T10:28:59.195Z,1009
2022-10-18T10:30:04.287Z,1009.1
2022-10-18T10:31:03.098Z,1009.1
2022-10-18T10:32:05.099Z,1009.1
2022-10-18T10:33:07.038Z,1009.1
2022-10-18T10:34:09.063Z,1009.1
2022-10-18T10:35:14.390Z,1009.2
2022-10-18T10:36:12.999Z,1009.2
2022-10-18T10:37:15.059Z,1009.3
2022-10-18T10:38:17.040Z,1009.2
2022-10-18T10:39:19.098Z,1009.2
2022-10-18T10:40:23.021Z,1009.2
2022-10-18T10:41:23.148Z,1009.2
2022-10-18T10:42:25.104Z,1009.1
2022-10-18T10:43:40.850Z,1009.2
2022-10-18T10:44:29.012Z,1009.2
2022-10-18T10:45:31.066Z,1009.1
2022-10-18T10:46:33.099Z,1009.1
2022-10-18T10:47:35.021Z,1009.1
2022-10-18T10:48:36.039Z,1009.1
2022-10-18T10:49:40.928Z,1009.1
2022-10-18T10:50:40.080Z,1009.1
2022-10-18T10:51:42.019Z,1009.1
2022-10-18T10:52:44.120Z,1009
2022-10-18T10:53:46.079Z,1009.1
2022-10-18T10:54:51.476Z,1009
2022-10-18T10:55:49.943Z,1009
2022-10-18T10:56:50.962Z,1009
2022-10-18T10:57:52.032Z,1009
2022-10-18T10:58:53.079Z,1008.9
2022-10-18T10:59:54.033Z,1008.9
2022-10-18T11:00:56.174Z,1008.9
2022-10-18T11:01:58.078Z,1008.9
2022-10-18T11:03:06.100Z,1008.9
2022-10-18T11:04:02.244Z,1008.9
2022-10-18T11:05:04.162Z,1008.9
2022-10-18T11:06:06.139Z,1008.9
2022-10-18T11:07:08.158Z,1008.9
2022-10-18T11:08:10.078Z,1008.9
2022-10-18T11:09:12.080Z,1008.9
2022-10-18T11:10:14.058Z,1008.9
2022-10-18T11:11:18.005Z,1008.9
2022-10-18T11:12:18.065Z,1008.8
2022-10-18T11:13:20.103Z,1008.8
2022-10-18T11:14:26.400Z,1008.8
2022-10-18T11:15:24.020Z,1008.9
2022-10-18T11:16:26.234Z,1008.8
2022-10-18T11:17:28.142Z,1008.8
2022-10-18T11:18:30.099Z,1008.8
2022-10-18T11:19:32.121Z,1008.8
2022-10-18T11:20:34.060Z,1008.8
2022-10-18T11:21:35.019Z,1008.7
2022-10-18T11:22:36.045Z,1008.8
2022-10-18T11:23:36.999Z,1008.7
2022-10-18T11:24:37.966Z,1008.7
2022-10-18T11:25:39.079Z,1008.7
2022-10-18T11:26:41.037Z,1008.7
2022-10-18T11:27:42.141Z,1008.7
2022-10-18T11:28:44.111Z,1008.7
2022-10-18T11:29:46.144Z,1008.7
2022-10-18T11:30:48.110Z,1008.6
2022-10-18T11:31:50.153Z,1008.6
2022-10-18T11:32:52.078Z,1008.6
2022-10-18T11:34:08.566Z,1008.6
2022-10-18T11:34:56.099Z,1008.6
2022-10-18T11:36:01.535Z,1008.5
2022-10-18T11:37:22.766Z,1008.5
2022-10-18T11:38:02.227Z,1008.4
2022-10-18T11:39:04.079Z,1008.4
2022-10-18T11:40:06.139Z,1008.3
2022-10-18T11:41:08.099Z,1008.3
2022-10-18T11:42:10.139Z,1008.2
2022-10-18T11:43:12.142Z,1008.2
2022-10-18T11:44:14.043Z,1008.1
2022-10-18T11:45:16.140Z,1008.1
2022-10-18T11:46:18.027Z,1008
2022-10-18T11:47:20.209Z,1008
2022-10-18T11:48:22.059Z,1008
2022-10-18T11:49:24.195Z,1008
2022-10-18T11:50:26.083Z,1008.1
2022-10-18T11:51:33.796Z,1008.1
2022-10-18T11:52:30.098Z,1008.1
2022-10-18T11:53:32.099Z,1008.1
2022-10-18T11:54:34.196Z,1008.1
2022-10-18T11:55:36.062Z,1008
2022-10-18T11:56:38.069Z,1008
2022-10-18T11:57:40.080Z,1008
2022-10-18T11:58:42.179Z,1008
2022-10-18T11:59:44.120Z,1008
2022-10-18T12:00:46.164Z,1008
2022-10-18T12:01:48.128Z,1007.9
2022-10-18T12:02:50.153Z,1007.9
2022-10-18T12:03:52.081Z,1007.9
2022-10-18T12:05:18.786Z,1007.9
2022-10-18T12:05:56.083Z,1007.9
2022-10-18T12:06:58.159Z,1007.8
2022-10-18T12:08:00.103Z,1007.8
2022-10-18T12:09:02.167Z,1007.8
2022-10-18T12:10:04.173Z,1007.8
2022-10-18T12:11:06.685Z,1007.8
2022-10-18T12:12:08.140Z,1007.8
2022-10-18T12:13:10.022Z,1007.7
2022-10-18T12:14:11.017Z,1007.8
2022-10-18T12:15:12.119Z,1007.8
2022-10-18T12:16:14.078Z,1007.7
2022-10-18T12:17:40.132Z,1007.7
2022-10-18T12:18:18.142Z,1007.7
2022-10-18T12:19:21.988Z,1007.7
2022-10-18T12:20:25.087Z,1007.6
2022-10-18T12:21:26.217Z,1007.7
2022-10-18T12:22:27.079Z,1007.7
2022-10-18T12:23:28.039Z,1007.6
2022-10-18T12:24:29.005Z,1007.6
2022-10-18T12:25:30.046Z,1007.5
2022-10-18T12:26:31.060Z,1007.4
2022-10-18T12:27:32.059Z,1007.4
2022-10-18T12:28:33.181Z,1007.5
2022-10-18T12:29:35.199Z,1007.4
2022-10-18T12:30:37.099Z,1007.4
2022-10-18T12:31:39.124Z,1007.4
2022-10-18T12:32:47.718Z,1007.5
2022-10-18T12:33:43.523Z,1007.5
2022-10-18T12:34:45.158Z,1007.5
2022-10-18T12:35:47.100Z,1007.5
2022-10-18T12:36:49.119Z,1007.4
2022-10-18T12:37:51.039Z,1007.4
2022-10-18T12:38:53.011Z,1007.4
2022-10-18T12:40:12.331Z,1007.4
2022-10-18T12:40:56.006Z,1007.4
2022-10-18T12:41:57.098Z,1007.4
2022-10-18T12:42:58.019Z,1007.4
2022-10-18T12:43:59.058Z,1007.4
2022-10-18T12:45:00.094Z,1007.4
2022-10-18T12:46:00.980Z,1007.4
2022-10-18T12:47:02.059Z,1007.4
2022-10-18T12:48:03.024Z,1007.4
2022-10-18T12:49:04.093Z,1007.4
2022-10-18T12:50:05.146Z,1007.3
2022-10-18T12:51:07.152Z,1007.3
2022-10-18T12:52:09.100Z,1007.2
2022-10-18T12:53:11.058Z,1007.3
2022-10-18T12:54:13.159Z,1007.3
2022-10-18T12:55:16.858Z,1007.2
2022-10-18T12:56:17.740Z,1007.2
2022-10-18T12:57:19.111Z,1007.2
2022-10-18T12:58:21.118Z,1007.1
2022-10-18T12:59:23.172Z,1007.1
2022-10-18T13:00:25.138Z,1007.1
2022-10-18T13:01:27.276Z,1007.1